sensor_id;sensor_type;location;lat;lon;timestamp;P1;durP1;ratioP1;P2;durP2;ratioP2
44746;SDS011;30472;49.490;10.972;2023-06-14T00:01:01;6.00;;;4.23;;
44746;SDS011;30472;49.490;10.972;2023-06-14T00:03:28;4.77;;;4.37;;
44746;SDS011;30472;49.490;10.972;2023-06-14T00:05:54;6.93;;;4.40;;
44746;SDS011;30472;49.490;10.972;2023-06-14T00:08:19;8.80;;;4.33;;
44746;SDS011;30472;49.490;10.972;2023-06-14T00:10:47;14.47;;;4.80;;
44746;SDS011;30472;49.490;10.972;2023-06-14T00:13:13;9.80;;;4.40;;
44746;SDS011;30472;49.490;10.972;2023-06-14T00:15:39;6.67;;;4.93;;
44746;SDS011;30472;49.490;10.972;2023-06-14T00:18:05;9.30;;;5.33;;
44746;SDS011;30472;49.490;10.972;2023-06-14T00:20:32;11.27;;;5.07;;
44746;SDS011;30472;49.490;10.972;2023-06-14T00:23:01;6.67;;;5.30;;
44746;SDS011;30472;49.490;10.972;2023-06-14T00:25:27;8.80;;;5.50;;
44746;SDS011;30472;49.490;10.972;2023-06-14T00:27:53;7.43;;;5.67;;
44746;SDS011;30472;49.490;10.972;2023-06-14T00:30:20;7.30;;;5.10;;
44746;SDS011;30472;49.490;10.972;2023-06-14T00:32:46;8.87;;;4.73;;
44746;SDS011;30472;49.490;10.972;2023-06-14T00:35:12;6.73;;;5.03;;
44746;SDS011;30472;49.490;10.972;2023-06-14T00:37:38;6.93;;;4.87;;
44746;SDS011;30472;49.490;10.972;2023-06-14T00:40:04;7.30;;;5.43;;
44746;SDS011;30472;49.490;10.972;2023-06-14T00:42:31;6.97;;;4.80;;
44746;SDS011;30472;49.490;10.972;2023-06-14T00:44:56;5.77;;;4.73;;
44746;SDS011;30472;49.490;10.972;2023-06-14T00:47:22;6.07;;;5.23;;
44746;SDS011;30472;49.490;10.972;2023-06-14T00:49:48;7.90;;;5.17;;
44746;SDS011;30472;49.490;10.972;2023-06-14T00:52:15;5.70;;;5.20;;
44746;SDS011;30472;49.490;10.972;2023-06-14T00:54:42;7.40;;;5.37;;
44746;SDS011;30472;49.490;10.972;2023-06-14T00:57:08;9.70;;;5.20;;
44746;SDS011;30472;49.490;10.972;2023-06-14T00:59:36;9.80;;;6.13;;
44746;SDS011;30472;49.490;10.972;2023-06-14T01:02:07;7.17;;;6.03;;
44746;SDS011;30472;49.490;10.972;2023-06-14T01:04:33;8.37;;;5.50;;
44746;SDS011;30472;49.490;10.972;2023-06-14T01:07:11;12.37;;;5.60;;
44746;SDS011;30472;49.490;10.972;2023-06-14T01:12:50;9.30;;;5.67;;
44746;SDS011;30472;49.490;10.972;2023-06-14T01:15:23;11.30;;;5.83;;
44746;SDS011;30472;49.490;10.972;2023-06-14T01:17:51;9.83;;;5.67;;
44746;SDS011;30472;49.490;10.972;2023-06-14T01:20:21;8.67;;;5.93;;
44746;SDS011;30472;49.490;10.972;2023-06-14T01:22:51;9.83;;;5.97;;
44746;SDS011;30472;49.490;10.972;2023-06-14T01:25:18;7.53;;;5.73;;
44746;SDS011;30472;49.490;10.972;2023-06-14T01:28:00;8.40;;;5.43;;
44746;SDS011;30472;49.490;10.972;2023-06-14T01:30:29;6.90;;;5.87;;
44746;SDS011;30472;49.490;10.972;2023-06-14T01:32:58;9.23;;;5.90;;
44746;SDS011;30472;49.490;10.972;2023-06-14T01:35:24;10.53;;;5.27;;
44746;SDS011;30472;49.490;10.972;2023-06-14T01:37:50;7.97;;;5.77;;
44746;SDS011;30472;49.490;10.972;2023-06-14T01:40:18;8.10;;;5.70;;
44746;SDS011;30472;49.490;10.972;2023-06-14T01:42:46;8.27;;;5.70;;
44746;SDS011;30472;49.490;10.972;2023-06-14T01:45:14;7.17;;;5.70;;
44746;SDS011;30472;49.490;10.972;2023-06-14T01:47:41;8.40;;;5.70;;
44746;SDS011;30472;49.490;10.972;2023-06-14T01:50:07;8.40;;;5.90;;
44746;SDS011;30472;49.490;10.972;2023-06-14T01:52:33;8.70;;;5.07;;
44746;SDS011;30472;49.490;10.972;2023-06-14T01:54:58;9.50;;;5.50;;
44746;SDS011;30472;49.490;10.972;2023-06-14T01:57:27;9.87;;;5.97;;
44746;SDS011;30472;49.490;10.972;2023-06-14T01:59:53;8.07;;;5.10;;
44746;SDS011;30472;49.490;10.972;2023-06-14T02:02:18;7.73;;;5.40;;
44746;SDS011;30472;49.490;10.972;2023-06-14T02:04:44;6.63;;;4.90;;
44746;SDS011;30472;49.490;10.972;2023-06-14T02:07:12;7.10;;;5.17;;
44746;SDS011;30472;49.490;10.972;2023-06-14T02:09:38;7.30;;;5.00;;
44746;SDS011;30472;49.490;10.972;2023-06-14T02:12:03;6.10;;;4.93;;
44746;SDS011;30472;49.490;10.972;2023-06-14T02:14:29;6.20;;;4.90;;
44746;SDS011;30472;49.490;10.972;2023-06-14T02:16:55;6.00;;;5.07;;
44746;SDS011;30472;49.490;10.972;2023-06-14T02:19:21;5.97;;;4.50;;
44746;SDS011;30472;49.490;10.972;2023-06-14T02:21:46;7.93;;;4.70;;
44746;SDS011;30472;49.490;10.972;2023-06-14T02:24:12;9.37;;;5.00;;
44746;SDS011;30472;49.490;10.972;2023-06-14T02:26:38;9.17;;;7.40;;
44746;SDS011;30472;49.490;10.972;2023-06-14T02:29:05;11.67;;;7.80;;
44746;SDS011;30472;49.490;10.972;2023-06-14T02:31:31;8.67;;;5.80;;
44746;SDS011;30472;49.490;10.972;2023-06-14T02:33:57;7.53;;;5.60;;
44746;SDS011;30472;49.490;10.972;2023-06-14T02:36:23;5.77;;;5.13;;
44746;SDS011;30472;49.490;10.972;2023-06-14T02:38:49;5.30;;;4.80;;
44746;SDS011;30472;49.490;10.972;2023-06-14T02:41:14;5.10;;;4.60;;
44746;SDS011;30472;49.490;10.972;2023-06-14T02:43:40;6.77;;;4.97;;
44746;SDS011;30472;49.490;10.972;2023-06-14T02:46:05;5.67;;;5.00;;
44746;SDS011;30472;49.490;10.972;2023-06-14T02:48:32;5.93;;;4.50;;
44746;SDS011;30472;49.490;10.972;2023-06-14T02:50:57;5.50;;;5.00;;
44746;SDS011;30472;49.490;10.972;2023-06-14T02:53:23;4.93;;;4.43;;
44746;SDS011;30472;49.490;10.972;2023-06-14T02:55:48;8.00;;;4.60;;
44746;SDS011;30472;49.490;10.972;2023-06-14T02:58:14;6.53;;;5.00;;
44746;SDS011;30472;49.490;10.972;2023-06-14T03:00:41;5.80;;;4.37;;
44746;SDS011;30472;49.490;10.972;2023-06-14T03:03:07;5.40;;;4.90;;
44746;SDS011;30472;49.490;10.972;2023-06-14T03:05:38;5.27;;;4.13;;
44746;SDS011;30472;49.490;10.972;2023-06-14T03:08:15;7.37;;;5.23;;
44746;SDS011;30472;49.490;10.972;2023-06-14T03:10:48;8.83;;;5.30;;
44746;SDS011;30472;49.490;10.972;2023-06-14T03:13:14;10.80;;;5.43;;
44746;SDS011;30472;49.490;10.972;2023-06-14T03:15:41;8.13;;;4.73;;
44746;SDS011;30472;49.490;10.972;2023-06-14T03:18:07;5.50;;;4.80;;
44746;SDS011;30472;49.490;10.972;2023-06-14T03:20:34;11.60;;;5.67;;
44746;SDS011;30472;49.490;10.972;2023-06-14T03:23:00;8.00;;;5.00;;
44746;SDS011;30472;49.490;10.972;2023-06-14T03:25:27;7.33;;;5.60;;
44746;SDS011;30472;49.490;10.972;2023-06-14T03:27:54;8.17;;;4.70;;
44746;SDS011;30472;49.490;10.972;2023-06-14T03:30:21;7.50;;;5.53;;
44746;SDS011;30472;49.490;10.972;2023-06-14T03:32:46;5.03;;;4.53;;
44746;SDS011;30472;49.490;10.972;2023-06-14T03:35:12;6.67;;;5.40;;
44746;SDS011;30472;49.490;10.972;2023-06-14T03:37:42;7.80;;;5.20;;
44746;SDS011;30472;49.490;10.972;2023-06-14T03:40:11;5.67;;;5.07;;
44746;SDS011;30472;49.490;10.972;2023-06-14T03:42:38;7.83;;;5.43;;
44746;SDS011;30472;49.490;10.972;2023-06-14T03:45:05;7.60;;;5.43;;
44746;SDS011;30472;49.490;10.972;2023-06-14T03:47:33;5.80;;;5.13;;
44746;SDS011;30472;49.490;10.972;2023-06-14T03:49:59;7.67;;;5.03;;
44746;SDS011;30472;49.490;10.972;2023-06-14T03:52:26;7.40;;;5.97;;
44746;SDS011;30472;49.490;10.972;2023-06-14T03:54:52;5.63;;;5.07;;
44746;SDS011;30472;49.490;10.972;2023-06-14T03:57:18;7.90;;;5.57;;
44746;SDS011;30472;49.490;10.972;2023-06-14T03:59:44;8.67;;;4.90;;
44746;SDS011;30472;49.490;10.972;2023-06-14T04:02:09;5.73;;;5.10;;
44746;SDS011;30472;49.490;10.972;2023-06-14T04:04:35;7.40;;;5.50;;
44746;SDS011;30472;49.490;10.972;2023-06-14T04:07:01;7.93;;;5.30;;
44746;SDS011;30472;49.490;10.972;2023-06-14T04:09:28;5.90;;;5.40;;
44746;SDS011;30472;49.490;10.972;2023-06-14T04:11:54;7.67;;;5.50;;
44746;SDS011;30472;49.490;10.972;2023-06-14T04:14:20;6.97;;;5.67;;
44746;SDS011;30472;49.490;10.972;2023-06-14T04:16:46;7.47;;;5.73;;
44746;SDS011;30472;49.490;10.972;2023-06-14T04:19:13;5.60;;;5.03;;
44746;SDS011;30472;49.490;10.972;2023-06-14T04:21:39;9.03;;;5.67;;
44746;SDS011;30472;49.490;10.972;2023-06-14T04:24:04;7.67;;;5.20;;
44746;SDS011;30472;49.490;10.972;2023-06-14T04:26:30;5.97;;;5.07;;
44746;SDS011;30472;49.490;10.972;2023-06-14T04:29:01;5.20;;;4.70;;
44746;SDS011;30472;49.490;10.972;2023-06-14T04:31:30;9.53;;;5.10;;
44746;SDS011;30472;49.490;10.972;2023-06-14T04:33:58;5.90;;;4.60;;
44746;SDS011;30472;49.490;10.972;2023-06-14T04:36:24;8.83;;;5.23;;
44746;SDS011;30472;49.490;10.972;2023-06-14T04:38:51;8.30;;;5.23;;
44746;SDS011;30472;49.490;10.972;2023-06-14T04:41:20;6.77;;;5.10;;
44746;SDS011;30472;49.490;10.972;2023-06-14T04:43:48;5.60;;;4.67;;
44746;SDS011;30472;49.490;10.972;2023-06-14T04:46:14;6.17;;;4.90;;
44746;SDS011;30472;49.490;10.972;2023-06-14T04:48:40;5.13;;;4.63;;
44746;SDS011;30472;49.490;10.972;2023-06-14T04:51:08;9.27;;;4.97;;
44746;SDS011;30472;49.490;10.972;2023-06-14T04:53:34;5.20;;;4.67;;
44746;SDS011;30472;49.490;10.972;2023-06-14T04:56:00;5.27;;;4.60;;
44746;SDS011;30472;49.490;10.972;2023-06-14T04:58:29;7.70;;;4.10;;
44746;SDS011;30472;49.490;10.972;2023-06-14T05:00:55;5.53;;;4.73;;
44746;SDS011;30472;49.490;10.972;2023-06-14T05:03:21;7.73;;;4.77;;
44746;SDS011;30472;49.490;10.972;2023-06-14T05:05:49;5.57;;;4.47;;
44746;SDS011;30472;49.490;10.972;2023-06-14T05:08:15;6.13;;;4.30;;
44746;SDS011;30472;49.490;10.972;2023-06-14T05:10:41;5.47;;;4.67;;
44746;SDS011;30472;49.490;10.972;2023-06-14T05:13:07;6.37;;;4.73;;
44746;SDS011;30472;49.490;10.972;2023-06-14T05:15:32;5.27;;;4.60;;
44746;SDS011;30472;49.490;10.972;2023-06-14T05:17:59;7.37;;;4.37;;
44746;SDS011;30472;49.490;10.972;2023-06-14T05:20:24;8.00;;;5.03;;
44746;SDS011;30472;49.490;10.972;2023-06-14T05:22:52;4.47;;;4.17;;
44746;SDS011;30472;49.490;10.972;2023-06-14T05:25:18;7.03;;;4.33;;
44746;SDS011;30472;49.490;10.972;2023-06-14T05:27:45;6.20;;;4.63;;
44746;SDS011;30472;49.490;10.972;2023-06-14T05:30:11;5.73;;;4.97;;
44746;SDS011;30472;49.490;10.972;2023-06-14T05:32:37;9.20;;;4.90;;
44746;SDS011;30472;49.490;10.972;2023-06-14T05:35:03;8.43;;;4.93;;
44746;SDS011;30472;49.490;10.972;2023-06-14T05:37:29;8.00;;;4.63;;
44746;SDS011;30472;49.490;10.972;2023-06-14T05:39:55;5.93;;;4.23;;
44746;SDS011;30472;49.490;10.972;2023-06-14T05:42:21;4.80;;;4.30;;
44746;SDS011;30472;49.490;10.972;2023-06-14T05:44:47;9.47;;;4.33;;
44746;SDS011;30472;49.490;10.972;2023-06-14T05:47:12;7.53;;;4.67;;
44746;SDS011;30472;49.490;10.972;2023-06-14T05:49:38;6.97;;;4.30;;
44746;SDS011;30472;49.490;10.972;2023-06-14T05:52:03;6.40;;;4.73;;
44746;SDS011;30472;49.490;10.972;2023-06-14T05:54:29;5.33;;;4.07;;
44746;SDS011;30472;49.490;10.972;2023-06-14T05:56:55;6.80;;;4.53;;
44746;SDS011;30472;49.490;10.972;2023-06-14T05:59:26;4.27;;;3.67;;
44746;SDS011;30472;49.490;10.972;2023-06-14T06:01:54;7.20;;;5.00;;
44746;SDS011;30472;49.490;10.972;2023-06-14T06:04:20;9.80;;;4.23;;
44746;SDS011;30472;49.490;10.972;2023-06-14T06:06:46;6.17;;;4.23;;
44746;SDS011;30472;49.490;10.972;2023-06-14T06:09:12;4.90;;;4.40;;
44746;SDS011;30472;49.490;10.972;2023-06-14T06:11:39;6.00;;;4.97;;
44746;SDS011;30472;49.490;10.972;2023-06-14T06:14:05;8.13;;;4.30;;
44746;SDS011;30472;49.490;10.972;2023-06-14T06:16:30;5.40;;;4.30;;
44746;SDS011;30472;49.490;10.972;2023-06-14T06:18:56;6.33;;;3.83;;
44746;SDS011;30472;49.490;10.972;2023-06-14T06:21:21;4.07;;;3.58;;
44746;SDS011;30472;49.490;10.972;2023-06-14T06:23:47;5.20;;;3.10;;
44746;SDS011;30472;49.490;10.972;2023-06-14T06:26:12;5.10;;;3.10;;
44746;SDS011;30472;49.490;10.972;2023-06-14T06:28:38;4.45;;;3.03;;
44746;SDS011;30472;49.490;10.972;2023-06-14T06:31:04;5.75;;;3.33;;
44746;SDS011;30472;49.490;10.972;2023-06-14T06:33:30;3.45;;;2.75;;
44746;SDS011;30472;49.490;10.972;2023-06-14T06:35:55;3.05;;;2.78;;
44746;SDS011;30472;49.490;10.972;2023-06-14T06:38:21;3.88;;;2.72;;
44746;SDS011;30472;49.490;10.972;2023-06-14T06:40:46;4.03;;;2.65;;
44746;SDS011;30472;49.490;10.972;2023-06-14T06:43:12;8.18;;;2.67;;
44746;SDS011;30472;49.490;10.972;2023-06-14T06:45:39;3.55;;;3.00;;
44746;SDS011;30472;49.490;10.972;2023-06-14T06:48:07;6.05;;;2.70;;
44746;SDS011;30472;49.490;10.972;2023-06-14T06:50:35;2.85;;;2.55;;
44746;SDS011;30472;49.490;10.972;2023-06-14T06:53:01;4.68;;;2.75;;
44746;SDS011;30472;49.490;10.972;2023-06-14T06:55:27;8.45;;;3.03;;
44746;SDS011;30472;49.490;10.972;2023-06-14T06:57:52;2.90;;;2.58;;
44746;SDS011;30472;49.490;10.972;2023-06-14T07:00:19;3.47;;;2.70;;
44746;SDS011;30472;49.490;10.972;2023-06-14T07:02:45;4.00;;;2.70;;
44746;SDS011;30472;49.490;10.972;2023-06-14T07:05:10;4.95;;;2.67;;
44746;SDS011;30472;49.490;10.972;2023-06-14T07:07:36;3.22;;;2.60;;
44746;SDS011;30472;49.490;10.972;2023-06-14T07:10:02;5.13;;;2.50;;
44746;SDS011;30472;49.490;10.972;2023-06-14T07:12:29;3.65;;;2.83;;
44746;SDS011;30472;49.490;10.972;2023-06-14T07:15:01;3.88;;;2.63;;
44746;SDS011;30472;49.490;10.972;2023-06-14T07:17:26;3.17;;;2.70;;
44746;SDS011;30472;49.490;10.972;2023-06-14T07:19:52;5.03;;;2.53;;
44746;SDS011;30472;49.490;10.972;2023-06-14T07:22:18;4.57;;;2.60;;
44746;SDS011;30472;49.490;10.972;2023-06-14T07:24:44;2.50;;;2.30;;
44746;SDS011;30472;49.490;10.972;2023-06-14T07:27:10;3.65;;;2.47;;
44746;SDS011;30472;49.490;10.972;2023-06-14T07:29:36;4.57;;;2.67;;
44746;SDS011;30472;49.490;10.972;2023-06-14T07:32:02;3.35;;;2.78;;
44746;SDS011;30472;49.490;10.972;2023-06-14T07:34:27;3.33;;;3.03;;
44746;SDS011;30472;49.490;10.972;2023-06-14T07:36:53;4.97;;;2.90;;
44746;SDS011;30472;49.490;10.972;2023-06-14T07:39:19;3.15;;;2.90;;
44746;SDS011;30472;49.490;10.972;2023-06-14T07:41:44;3.30;;;2.83;;
44746;SDS011;30472;49.490;10.972;2023-06-14T07:44:10;3.08;;;2.78;;
44746;SDS011;30472;49.490;10.972;2023-06-14T07:46:37;4.68;;;2.92;;
44746;SDS011;30472;49.490;10.972;2023-06-14T07:49:03;8.07;;;3.10;;
44746;SDS011;30472;49.490;10.972;2023-06-14T07:51:28;3.33;;;3.05;;
44746;SDS011;30472;49.490;10.972;2023-06-14T07:53:54;7.90;;;3.72;;
44746;SDS011;30472;49.490;10.972;2023-06-14T07:56:20;3.83;;;2.88;;
44746;SDS011;30472;49.490;10.972;2023-06-14T07:58:46;3.33;;;3.03;;
44746;SDS011;30472;49.490;10.972;2023-06-14T08:01:12;3.65;;;3.08;;
44746;SDS011;30472;49.490;10.972;2023-06-14T08:03:37;6.78;;;3.65;;
44746;SDS011;30472;49.490;10.972;2023-06-14T08:06:03;5.60;;;3.25;;
44746;SDS011;30472;49.490;10.972;2023-06-14T08:08:29;6.35;;;2.90;;
44746;SDS011;30472;49.490;10.972;2023-06-14T08:10:55;3.33;;;2.97;;
44746;SDS011;30472;49.490;10.972;2023-06-14T08:13:21;3.00;;;2.70;;
44746;SDS011;30472;49.490;10.972;2023-06-14T08:15:46;3.85;;;3.00;;
44746;SDS011;30472;49.490;10.972;2023-06-14T08:18:12;3.83;;;3.33;;
44746;SDS011;30472;49.490;10.972;2023-06-14T08:20:37;5.30;;;3.72;;
44746;SDS011;30472;49.490;10.972;2023-06-14T08:23:03;3.70;;;3.28;;
44746;SDS011;30472;49.490;10.972;2023-06-14T08:25:29;4.45;;;3.08;;
44746;SDS011;30472;49.490;10.972;2023-06-14T08:27:55;3.50;;;3.20;;
44746;SDS011;30472;49.490;10.972;2023-06-14T08:30:21;4.03;;;3.20;;
44746;SDS011;30472;49.490;10.972;2023-06-14T08:32:47;3.58;;;3.28;;
44746;SDS011;30472;49.490;10.972;2023-06-14T08:35:12;4.38;;;3.38;;
44746;SDS011;30472;49.490;10.972;2023-06-14T08:37:39;4.35;;;3.40;;
44746;SDS011;30472;49.490;10.972;2023-06-14T08:40:12;4.95;;;3.40;;
44746;SDS011;30472;49.490;10.972;2023-06-14T08:42:45;5.13;;;3.17;;
44746;SDS011;30472;49.490;10.972;2023-06-14T08:45:15;3.65;;;3.13;;
44746;SDS011;30472;49.490;10.972;2023-06-14T08:47:40;5.38;;;3.40;;
44746;SDS011;30472;49.490;10.972;2023-06-14T08:50:06;3.75;;;3.25;;
44746;SDS011;30472;49.490;10.972;2023-06-14T08:52:33;4.40;;;3.17;;
44746;SDS011;30472;49.490;10.972;2023-06-14T08:55:06;4.28;;;3.50;;
44746;SDS011;30472;49.490;10.972;2023-06-14T08:57:33;3.70;;;3.40;;
44746;SDS011;30472;49.490;10.972;2023-06-14T09:00:02;3.15;;;2.83;;
44746;SDS011;30472;49.490;10.972;2023-06-14T09:02:38;4.95;;;3.10;;
44746;SDS011;30472;49.490;10.972;2023-06-14T09:05:08;4.65;;;3.55;;
44746;SDS011;30472;49.490;10.972;2023-06-14T09:07:38;4.45;;;3.08;;
44746;SDS011;30472;49.490;10.972;2023-06-14T09:10:10;8.68;;;3.28;;
44746;SDS011;30472;49.490;10.972;2023-06-14T09:12:37;3.55;;;2.80;;
44746;SDS011;30472;49.490;10.972;2023-06-14T09:15:04;5.47;;;3.58;;
44746;SDS011;30472;49.490;10.972;2023-06-14T09:17:33;3.30;;;2.72;;
44746;SDS011;30472;49.490;10.972;2023-06-14T09:20:00;6.78;;;3.10;;
44746;SDS011;30472;49.490;10.972;2023-06-14T09:22:30;4.65;;;2.92;;
44746;SDS011;30472;49.490;10.972;2023-06-14T09:24:55;3.35;;;3.05;;
44746;SDS011;30472;49.490;10.972;2023-06-14T09:27:21;5.18;;;3.38;;
44746;SDS011;30472;49.490;10.972;2023-06-14T09:29:47;4.65;;;3.13;;
44746;SDS011;30472;49.490;10.972;2023-06-14T09:32:12;3.13;;;2.85;;
44746;SDS011;30472;49.490;10.972;2023-06-14T09:34:38;4.28;;;3.00;;
44746;SDS011;30472;49.490;10.972;2023-06-14T09:37:03;3.53;;;2.85;;
44746;SDS011;30472;49.490;10.972;2023-06-14T09:39:29;4.25;;;2.85;;
44746;SDS011;30472;49.490;10.972;2023-06-14T09:41:55;5.35;;;2.45;;
44746;SDS011;30472;49.490;10.972;2023-06-14T09:44:20;6.40;;;2.78;;
44746;SDS011;30472;49.490;10.972;2023-06-14T09:46:50;4.00;;;2.55;;
44746;SDS011;30472;49.490;10.972;2023-06-14T09:49:16;4.13;;;2.83;;
44746;SDS011;30472;49.490;10.972;2023-06-14T09:51:42;3.67;;;2.88;;
44746;SDS011;30472;49.490;10.972;2023-06-14T09:54:11;3.13;;;2.78;;
44746;SDS011;30472;49.490;10.972;2023-06-14T09:56:41;4.15;;;3.22;;
44746;SDS011;30472;49.490;10.972;2023-06-14T09:59:14;3.35;;;2.97;;
44746;SDS011;30472;49.490;10.972;2023-06-14T10:01:45;6.13;;;2.85;;
44746;SDS011;30472;49.490;10.972;2023-06-14T10:04:12;3.40;;;2.95;;
44746;SDS011;30472;49.490;10.972;2023-06-14T10:06:44;2.53;;;2.33;;
44746;SDS011;30472;49.490;10.972;2023-06-14T10:09:11;4.00;;;2.90;;
44746;SDS011;30472;49.490;10.972;2023-06-14T10:11:37;6.13;;;3.50;;
44746;SDS011;30472;49.490;10.972;2023-06-14T10:14:10;5.32;;;3.08;;
44746;SDS011;30472;49.490;10.972;2023-06-14T10:19:28;3.30;;;3.00;;
44746;SDS011;30472;49.490;10.972;2023-06-14T10:22:02;5.45;;;2.58;;
44746;SDS011;30472;49.490;10.972;2023-06-14T10:24:44;3.70;;;2.92;;
44746;SDS011;30472;49.490;10.972;2023-06-14T10:27:13;5.07;;;2.60;;
44746;SDS011;30472;49.490;10.972;2023-06-14T10:32:21;5.03;;;2.70;;
44746;SDS011;30472;49.490;10.972;2023-06-14T10:34:58;5.65;;;2.80;;
44746;SDS011;30472;49.490;10.972;2023-06-14T10:37:25;3.03;;;2.80;;
44746;SDS011;30472;49.490;10.972;2023-06-14T10:39:51;3.83;;;2.70;;
44746;SDS011;30472;49.490;10.972;2023-06-14T10:42:18;4.05;;;3.20;;
44746;SDS011;30472;49.490;10.972;2023-06-14T10:47:10;5.35;;;2.92;;
44746;SDS011;30472;49.490;10.972;2023-06-14T10:49:49;3.83;;;2.63;;
44746;SDS011;30472;49.490;10.972;2023-06-14T10:52:16;2.90;;;2.60;;
44746;SDS011;30472;49.490;10.972;2023-06-14T10:54:55;3.03;;;2.63;;
44746;SDS011;30472;49.490;10.972;2023-06-14T10:57:29;2.92;;;2.60;;
44746;SDS011;30472;49.490;10.972;2023-06-14T10:59:56;3.97;;;2.90;;
44746;SDS011;30472;49.490;10.972;2023-06-14T11:02:42;3.10;;;2.63;;
44746;SDS011;30472;49.490;10.972;2023-06-14T11:05:29;3.90;;;3.13;;
44746;SDS011;30472;49.490;10.972;2023-06-14T11:10:51;5.57;;;3.00;;
44746;SDS011;30472;49.490;10.972;2023-06-14T11:13:19;4.00;;;2.75;;
44746;SDS011;30472;49.490;10.972;2023-06-14T11:15:45;4.32;;;2.60;;
44746;SDS011;30472;49.490;10.972;2023-06-14T11:18:12;3.97;;;2.90;;
44746;SDS011;30472;49.490;10.972;2023-06-14T11:20:39;3.15;;;2.83;;
44746;SDS011;30472;49.490;10.972;2023-06-14T11:23:05;4.40;;;2.92;;
44746;SDS011;30472;49.490;10.972;2023-06-14T11:25:31;5.53;;;2.70;;
44746;SDS011;30472;49.490;10.972;2023-06-14T11:27:57;2.90;;;2.70;;
44746;SDS011;30472;49.490;10.972;2023-06-14T11:30:24;4.93;;;3.55;;
44746;SDS011;30472;49.490;10.972;2023-06-14T11:32:51;4.65;;;3.25;;
44746;SDS011;30472;49.490;10.972;2023-06-14T11:35:18;3.40;;;3.10;;
44746;SDS011;30472;49.490;10.972;2023-06-14T11:37:47;3.97;;;2.92;;
44746;SDS011;30472;49.490;10.972;2023-06-14T11:40:14;2.90;;;2.60;;
44746;SDS011;30472;49.490;10.972;2023-06-14T11:42:40;3.63;;;3.08;;
44746;SDS011;30472;49.490;10.972;2023-06-14T11:45:07;6.93;;;3.03;;
44746;SDS011;30472;49.490;10.972;2023-06-14T11:47:34;3.80;;;2.75;;
44746;SDS011;30472;49.490;10.972;2023-06-14T11:50:01;5.47;;;3.10;;
44746;SDS011;30472;49.490;10.972;2023-06-14T11:52:27;4.57;;;2.60;;
44746;SDS011;30472;49.490;10.972;2023-06-14T11:54:53;8.30;;;2.78;;
44746;SDS011;30472;49.490;10.972;2023-06-14T11:57:18;3.30;;;3.00;;
44746;SDS011;30472;49.490;10.972;2023-06-14T11:59:45;4.07;;;2.90;;
44746;SDS011;30472;49.490;10.972;2023-06-14T12:02:14;3.13;;;2.45;;
44746;SDS011;30472;49.490;10.972;2023-06-14T12:04:41;2.92;;;2.65;;
44746;SDS011;30472;49.490;10.972;2023-06-14T12:07:10;3.30;;;3.00;;
44746;SDS011;30472;49.490;10.972;2023-06-14T12:09:39;5.90;;;3.03;;
44746;SDS011;30472;49.490;10.972;2023-06-14T12:12:26;3.53;;;2.88;;
44746;SDS011;30472;49.490;10.972;2023-06-14T12:14:52;8.38;;;2.70;;
44746;SDS011;30472;49.490;10.972;2023-06-14T12:17:18;3.20;;;2.90;;
44746;SDS011;30472;49.490;10.972;2023-06-14T12:19:44;3.10;;;2.80;;
44746;SDS011;30472;49.490;10.972;2023-06-14T12:22:11;6.95;;;3.05;;
44746;SDS011;30472;49.490;10.972;2023-06-14T12:24:37;3.22;;;2.88;;
44746;SDS011;30472;49.490;10.972;2023-06-14T12:27:04;6.07;;;3.00;;
44746;SDS011;30472;49.490;10.972;2023-06-14T12:29:31;3.88;;;2.33;;
44746;SDS011;30472;49.490;10.972;2023-06-14T12:31:57;6.13;;;2.50;;
44746;SDS011;30472;49.490;10.972;2023-06-14T12:34:23;3.38;;;2.63;;
44746;SDS011;30472;49.490;10.972;2023-06-14T12:36:52;3.95;;;2.30;;
44746;SDS011;30472;49.490;10.972;2023-06-14T12:39:18;4.05;;;2.70;;
44746;SDS011;30472;49.490;10.972;2023-06-14T12:41:44;2.78;;;2.58;;
44746;SDS011;30472;49.490;10.972;2023-06-14T12:44:11;2.88;;;2.63;;
44746;SDS011;30472;49.490;10.972;2023-06-14T12:46:36;3.58;;;2.20;;
44746;SDS011;30472;49.490;10.972;2023-06-14T12:49:04;8.60;;;2.95;;
44746;SDS011;30472;49.490;10.972;2023-06-14T12:51:30;7.10;;;2.58;;
44746;SDS011;30472;49.490;10.972;2023-06-14T12:53:56;3.45;;;2.72;;
44746;SDS011;30472;49.490;10.972;2023-06-14T12:56:21;2.90;;;2.70;;
44746;SDS011;30472;49.490;10.972;2023-06-14T12:58:47;4.53;;;2.25;;
44746;SDS011;30472;49.490;10.972;2023-06-14T13:01:12;2.78;;;2.55;;
44746;SDS011;30472;49.490;10.972;2023-06-14T13:03:38;4.78;;;2.70;;
44746;SDS011;30472;49.490;10.972;2023-06-14T13:06:03;3.10;;;2.72;;
44746;SDS011;30472;49.490;10.972;2023-06-14T13:08:29;4.78;;;2.60;;
44746;SDS011;30472;49.490;10.972;2023-06-14T13:10:55;2.92;;;2.65;;
44746;SDS011;30472;49.490;10.972;2023-06-14T13:13:21;2.50;;;2.30;;
44746;SDS011;30472;49.490;10.972;2023-06-14T13:15:46;4.18;;;2.58;;
44746;SDS011;30472;49.490;10.972;2023-06-14T13:18:14;2.50;;;2.30;;
44746;SDS011;30472;49.490;10.972;2023-06-14T13:20:39;3.05;;;2.72;;
44746;SDS011;30472;49.490;10.972;2023-06-14T13:23:05;3.58;;;2.63;;
44746;SDS011;30472;49.490;10.972;2023-06-14T13:25:32;4.00;;;2.50;;
44746;SDS011;30472;49.490;10.972;2023-06-14T13:28:03;4.90;;;3.10;;
44746;SDS011;30472;49.490;10.972;2023-06-14T13:30:29;6.50;;;2.72;;
44746;SDS011;30472;49.490;10.972;2023-06-14T13:32:55;3.03;;;2.53;;
44746;SDS011;30472;49.490;10.972;2023-06-14T13:35:21;3.20;;;2.45;;
44746;SDS011;30472;49.490;10.972;2023-06-14T13:37:47;3.20;;;2.47;;
44746;SDS011;30472;49.490;10.972;2023-06-14T13:40:13;4.65;;;2.78;;
44746;SDS011;30472;49.490;10.972;2023-06-14T13:42:39;4.43;;;2.33;;
44746;SDS011;30472;49.490;10.972;2023-06-14T13:45:05;5.80;;;2.97;;
44746;SDS011;30472;49.490;10.972;2023-06-14T13:47:31;2.60;;;2.40;;
44746;SDS011;30472;49.490;10.972;2023-06-14T13:49:57;3.80;;;2.63;;
44746;SDS011;30472;49.490;10.972;2023-06-14T13:52:23;3.25;;;2.30;;
44746;SDS011;30472;49.490;10.972;2023-06-14T13:54:49;4.43;;;2.60;;
44746;SDS011;30472;49.490;10.972;2023-06-14T13:57:15;3.50;;;2.30;;
44746;SDS011;30472;49.490;10.972;2023-06-14T13:59:41;3.40;;;2.38;;
44746;SDS011;30472;49.490;10.972;2023-06-14T14:02:09;4.25;;;2.83;;
44746;SDS011;30472;49.490;10.972;2023-06-14T14:04:35;4.53;;;2.90;;
44746;SDS011;30472;49.490;10.972;2023-06-14T14:07:01;3.40;;;2.42;;
44746;SDS011;30472;49.490;10.972;2023-06-14T14:09:27;2.83;;;2.53;;
44746;SDS011;30472;49.490;10.972;2023-06-14T14:11:53;3.42;;;3.05;;
44746;SDS011;30472;49.490;10.972;2023-06-14T14:14:18;3.72;;;2.78;;
44746;SDS011;30472;49.490;10.972;2023-06-14T14:16:44;2.88;;;2.60;;
44746;SDS011;30472;49.490;10.972;2023-06-14T14:19:09;4.10;;;2.70;;
44746;SDS011;30472;49.490;10.972;2023-06-14T14:21:35;3.22;;;2.70;;
44746;SDS011;30472;49.490;10.972;2023-06-14T14:24:01;3.65;;;2.38;;
44746;SDS011;30472;49.490;10.972;2023-06-14T14:26:26;2.17;;;1.98;;
44746;SDS011;30472;49.490;10.972;2023-06-14T14:28:52;3.55;;;2.50;;
44746;SDS011;30472;49.490;10.972;2023-06-14T14:31:18;5.65;;;2.08;;
44746;SDS011;30472;49.490;10.972;2023-06-14T14:33:44;3.83;;;2.38;;
44746;SDS011;30472;49.490;10.972;2023-06-14T14:36:09;4.03;;;2.45;;
44746;SDS011;30472;49.490;10.972;2023-06-14T14:38:35;3.72;;;2.38;;
44746;SDS011;30472;49.490;10.972;2023-06-14T14:41:01;5.30;;;2.20;;
44746;SDS011;30472;49.490;10.972;2023-06-14T14:43:26;7.05;;;2.63;;
44746;SDS011;30472;49.490;10.972;2023-06-14T14:45:55;3.25;;;2.85;;